createdAt,value
2023-01-13T00:01:58.940Z,101694.69
2023-01-13T00:04:26.703Z,101694.63
2023-01-13T00:06:53.956Z,101696.38
2023-01-13T00:09:22.807Z,101703.31
2023-01-13T00:11:49.901Z,101702.41
2023-01-13T00:14:19.476Z,101701.41
2023-01-13T00:16:46.337Z,101690.09
2023-01-13T00:19:19.947Z,101690.03
2023-01-13T00:21:52.213Z,101679.53
2023-01-13T00:24:21.853Z,101677.88
2023-01-13T00:26:50.094Z,101666.50
2023-01-13T00:29:20.204Z,101668.25
2023-01-13T00:31:51.768Z,101665.59
2023-01-13T00:34:22.009Z,101655.06
2023-01-13T00:36:54.661Z,101656.84
2023-01-13T00:39:22.805Z,101655.09
2023-01-13T00:42:08.103Z,101639.44
2023-01-13T00:44:34.966Z,101643.81
2023-01-13T00:47:05.815Z,101636.81
2023-01-13T00:49:33.856Z,101639.47
2023-01-13T00:52:16.157Z,101633.38
2023-01-13T00:54:43.450Z,101641.31
2023-01-13T00:57:11.004Z,101631.84
2023-01-13T00:59:44.501Z,101627.50
2023-01-13T01:02:14.567Z,101623.09
2023-01-13T01:04:41.542Z,101629.25
2023-01-13T01:07:08.902Z,101631.81
2023-01-13T01:09:39.569Z,101635.28
2023-01-13T01:12:07.530Z,101640.47
2023-01-13T01:14:39.150Z,101642.19
2023-01-13T01:17:06.587Z,101647.38
2023-01-13T01:19:33.466Z,101653.53
2023-01-13T01:22:02.745Z,101646.44
2023-01-13T01:24:32.086Z,101662.19
2023-01-13T01:26:59.830Z,101652.72
2023-01-13T01:29:29.949Z,101653.66
2023-01-13T01:31:59.297Z,101658.88
2023-01-13T01:34:28.784Z,101664.03
2023-01-13T01:36:55.708Z,101665.78
2023-01-13T01:39:22.504Z,101661.34
2023-01-13T01:42:08.076Z,101645.66
2023-01-13T01:44:43.863Z,101642.09
2023-01-13T01:47:14.255Z,101651.69
2023-01-13T01:49:48.379Z,101646.38
2023-01-13T01:52:30.046Z,101646.34
2023-01-13T01:55:06.959Z,101651.63
2023-01-13T01:57:40.134Z,101648.09
2023-01-13T02:00:10.772Z,101638.59
2023-01-13T02:02:41.056Z,101638.78
2023-01-13T02:05:10.939Z,101631.75
2023-01-13T02:07:45.129Z,101623.13
2023-01-13T02:10:20.266Z,101630.91
2023-01-13T02:12:48.675Z,101622.22
2023-01-13T02:15:35.676Z,101616.13
2023-01-13T02:18:02.885Z,101619.63
2023-01-13T02:20:54.390Z,101604.78
2023-01-13T02:24:26.650Z,101604.75
2023-01-13T02:27:14.439Z,101586.38
2023-01-13T02:30:29.970Z,101587.31
2023-01-13T02:33:12.997Z,101583.69
2023-01-13T02:35:54.194Z,101589.03
2023-01-13T02:38:29.031Z,101600.38
2023-01-13T02:41:27.784Z,101601.22
2023-01-13T02:44:07.822Z,101589.81
2023-01-13T02:46:43.422Z,101594.97
2023-01-13T02:49:26.904Z,101590.56
2023-01-13T02:51:56.834Z,101590.56
2023-01-13T02:54:29.385Z,101592.31
2023-01-13T02:56:58.919Z,101576.53
2023-01-13T02:59:27.987Z,101576.50
2023-01-13T03:01:58.100Z,101575.69
2023-01-13T03:04:57.273Z,101567.81
2023-01-13T03:07:42.955Z,101565.22
2023-01-13T03:10:15.894Z,101558.19
2023-01-13T03:13:41.953Z,101551.28
2023-01-13T03:16:10.395Z,101534.88
2023-01-13T03:19:16.138Z,101522.31
2023-01-13T03:22:25.573Z,101527.59
2023-01-13T03:25:01.190Z,101525.69
2023-01-13T03:27:52.075Z,101526.91
2023-01-13T03:30:53.632Z,101525.22
2023-01-13T03:33:27.333Z,101522.25
2023-01-13T03:36:00.941Z,101509.50
2023-01-13T03:38:42.455Z,101508.22
2023-01-13T03:41:28.018Z,101500.63
2023-01-13T03:44:25.737Z,101511.91
2023-01-13T03:47:30.808Z,101501.28
2023-01-13T03:50:42.461Z,101493.56
2023-01-13T03:53:20.575Z,101490.78
2023-01-13T03:56:05.923Z,101484.41
2023-01-13T03:58:49.502Z,101483.47
2023-01-13T04:01:27.060Z,101498.53
2023-01-13T04:04:24.520Z,101499.78
2023-01-13T04:07:26.640Z,101506.88
2023-01-13T04:09:56.798Z,101515.69
2023-01-13T04:12:27.409Z,101516.53
2023-01-13T04:14:56.864Z,101522.63
2023-01-13T04:17:30.552Z,101528.63
2023-01-13T04:19:59.758Z,101526.84
2023-01-13T04:22:30.686Z,101529.44
2023-01-13T04:25:08.073Z,101532.94
2023-01-13T04:27:43.693Z,101539.84
2023-01-13T04:30:11.413Z,101532.88
2023-01-13T04:32:38.194Z,101535.59
2023-01-13T04:35:18.009Z,101555.59
2023-01-13T04:37:51.100Z,101543.31
2023-01-13T04:40:20.731Z,101551.19
2023-01-13T04:42:52.736Z,101546.84
2023-01-13T04:45:31.232Z,101544.19
2023-01-13T04:47:58.785Z,101537.16
2023-01-13T04:50:30.910Z,101537.19
2023-01-13T04:53:06.641Z,101534.75
2023-01-13T04:55:36.247Z,101538.41
2023-01-13T04:58:07.964Z,101528.75
2023-01-13T05:00:40.219Z,101534.91
2023-01-13T05:03:07.400Z,101541.88
2023-01-13T05:05:43.402Z,101546.19
2023-01-13T05:08:11.593Z,101544.44
2023-01-13T05:10:43.762Z,101546.09
2023-01-13T05:13:31.498Z,101551.28
2023-01-13T05:16:35.813Z,101566.13
2023-01-13T05:19:06.789Z,101585.25
2023-01-13T05:21:58.302Z,101580.88
2023-01-13T05:24:44.190Z,101585.22
2023-01-13T05:27:15.112Z,101584.47
2023-01-13T05:50:33.669Z,101583.66
2023-01-13T05:56:28.798Z,101594.81
2023-01-13T06:22:49.515Z,101611.38
2023-01-13T06:36:01.426Z,101613.84
2023-01-13T06:38:31.520Z,101618.19
2023-01-13T06:41:00.748Z,101619.03
2023-01-13T06:50:42.544Z,101608.63
2023-01-13T06:53:10.014Z,101613.84
2023-01-13T06:55:37.131Z,101616.53
2023-01-13T06:58:16.071Z,101619.16
2023-01-13T07:08:28.885Z,101608.66
2023-01-13T07:18:42.769Z,101616.59
2023-01-13T07:21:13.290Z,101621.84
2023-01-13T07:29:56.840Z,101610.47
2023-01-13T07:32:33.958Z,101615.75
2023-01-13T07:35:11.626Z,101615.03
2023-01-13T07:37:39.831Z,101611.53
2023-01-13T07:43:36.739Z,101616.66
2023-01-13T07:46:13.458Z,101613.13
2023-01-13T07:48:40.928Z,101614.97
2023-01-13T07:51:11.825Z,101616.66
2023-01-13T07:53:39.078Z,101627.22
2023-01-13T07:56:10.733Z,101623.72
2023-01-13T07:58:37.994Z,101618.59
2023-01-13T08:01:20.291Z,101615.19
2023-01-13T08:07:42.509Z,101610.88
2023-01-13T08:10:17.602Z,101613.50
2023-01-13T08:13:03.828Z,101608.28
2023-01-13T08:19:38.430Z,101620.44
2023-01-13T08:22:09.362Z,101623.88
2023-01-13T08:24:36.164Z,101632.56
2023-01-13T08:27:02.835Z,101641.31
2023-01-13T08:33:26.559Z,101620.38
2023-01-13T08:36:05.088Z,101619.50
2023-01-13T08:38:32.515Z,101610.78
2023-01-13T08:51:59.038Z,101627.34
2023-01-13T09:12:51.531Z,101622.16
2023-01-13T09:22:27.661Z,101626.41
2023-01-13T09:24:57.597Z,101630.81
2023-01-13T09:27:25.076Z,101617.25
2023-01-13T09:29:51.814Z,101615.31
2023-01-13T09:36:30.285Z,101598.19
2023-01-13T09:38:59.758Z,101600.16
2023-01-13T09:42:03.327Z,101597.31
2023-01-13T09:44:41.525Z,101598.31
2023-01-13T09:47:20.419Z,101591.47
2023-01-13T10:00:39.618Z,101602.69
2023-01-13T10:03:15.537Z,101599.13
2023-01-13T10:06:01.155Z,101589.25
2023-01-13T10:08:41.967Z,101565.88
2023-01-13T10:14:42.148Z,101564.91
2023-01-13T10:17:18.833Z,101565.22
2023-01-13T10:33:28.688Z,101544.09
2023-01-13T10:36:02.808Z,101548.28
2023-01-13T10:38:29.891Z,101546.81
2023-01-13T10:41:04.867Z,101541.19
2023-01-13T10:43:32.171Z,101541.84
2023-01-13T10:46:24.386Z,101539.41
2023-01-13T10:52:58.469Z,101534.00
2023-01-13T11:26:27.604Z,101512.66
2023-01-13T11:29:21.044Z,101517.34
2023-01-13T11:35:20.665Z,101495.59
2023-01-13T11:38:02.964Z,101493.03
2023-01-13T11:44:17.169Z,101474.75
2023-01-13T12:04:25.841Z,101444.03
2023-01-13T12:07:14.336Z,101433.00
2023-01-13T12:10:18.209Z,101435.59
2023-01-13T12:12:47.619Z,101443.31
2023-01-13T12:15:46.909Z,101439.38
2023-01-13T12:18:39.692Z,101449.47
2023-01-13T12:21:15.165Z,101440.75
2023-01-13T12:24:06.184Z,101451.31
2023-01-13T12:26:45.866Z,101447.34
2023-01-13T12:29:24.668Z,101444.59
2023-01-13T12:31:55.635Z,101441.66
2023-01-13T12:34:50.685Z,101439.81
2023-01-13T12:37:44.983Z,101436.50
2023-01-13T12:40:25.701Z,101436.00
2023-01-13T12:43:39.978Z,101441.47
2023-01-13T12:46:28.916Z,101423.72
2023-01-13T12:49:07.812Z,101415.94
2023-01-13T12:51:55.649Z,101426.97
2023-01-13T12:54:58.060Z,101426.94
2023-01-13T12:57:36.833Z,101431.28
2023-01-13T13:00:03.580Z,101435.22
2023-01-13T13:02:35.745Z,101432.22
2023-01-13T13:05:28.920Z,101428.81
2023-01-13T13:08:31.477Z,101421.53
2023-01-13T13:11:46.007Z,101419.63
2023-01-13T13:14:14.461Z,101420.34
2023-01-13T13:16:52.845Z,101420.88
2023-01-13T13:19:21.318Z,101423.53
2023-01-13T13:22:08.774Z,101431.81
2023-01-13T13:24:35.798Z,101424.53
2023-01-13T13:27:20.069Z,101431.84
2023-01-13T13:29:59.919Z,101439.19
2023-01-13T13:32:41.786Z,101429.59
2023-01-13T13:35:17.701Z,101430.53
2023-01-13T13:38:37.449Z,101439.50
2023-01-13T13:41:46.792Z,101431.63
2023-01-13T13:44:36.665Z,101423.03
2023-01-13T13:47:06.996Z,101414.13
2023-01-13T13:49:51.720Z,101407.19
2023-01-13T13:52:39.375Z,101396.84
2023-01-13T13:55:18.831Z,101413.53
2023-01-13T13:57:58.733Z,101416.88
2023-01-13T14:00:42.410Z,101413.47
2023-01-13T14:03:25.545Z,101408.19
2023-01-13T14:06:03.247Z,101408.28
2023-01-13T14:08:36.053Z,101401.13
2023-01-13T14:11:32.575Z,101404.66
2023-01-13T14:14:17.010Z,101411.69
2023-01-13T14:16:51.374Z,101408.97
2023-01-13T14:19:35.265Z,101397.44
2023-01-13T14:22:23.513Z,101400.06
2023-01-13T14:24:55.761Z,101404.66
2023-01-13T14:27:35.415Z,101392.09
2023-01-13T14:30:10.006Z,101397.53
2023-01-13T14:32:47.998Z,101402.84
2023-01-13T14:35:17.864Z,101407.31
2023-01-13T14:37:52.852Z,101409.66
2023-01-13T14:40:49.756Z,101409.56
2023-01-13T14:43:28.755Z,101415.81
2023-01-13T14:46:04.016Z,101408.56
2023-01-13T14:48:36.141Z,101409.47
2023-01-13T14:51:17.339Z,101406.81
2023-01-13T14:53:47.272Z,101402.44
2023-01-13T14:56:48.151Z,101399.63
2023-01-13T15:00:02.914Z,101393.81
2023-01-13T15:02:36.531Z,101405.38
2023-01-13T15:05:31.023Z,101395.25
2023-01-13T15:08:16.639Z,101397.44
2023-01-13T15:11:00.044Z,101393.38
2023-01-13T15:13:53.188Z,101404.16
2023-01-13T15:16:33.958Z,101427.97
2023-01-13T15:19:03.612Z,101424.69
2023-01-13T15:21:30.356Z,101426.53
2023-01-13T15:23:59.880Z,101431.56
2023-01-13T15:26:36.364Z,101432.16
2023-01-13T15:29:03.887Z,101435.97
2023-01-13T15:31:32.441Z,101444.63
2023-01-13T15:34:00.578Z,101452.38
2023-01-13T15:36:35.657Z,101452.72
2023-01-13T15:39:08.647Z,101455.34
2023-01-13T15:41:54.722Z,101451.13
2023-01-13T15:44:41.453Z,101458.31
2023-01-13T15:47:14.768Z,101452.19
2023-01-13T15:49:53.467Z,101471.50
2023-01-13T15:52:25.018Z,101475.91
2023-01-13T15:55:04.102Z,101478.50
2023-01-13T15:57:41.092Z,101478.63
2023-01-13T16:00:22.970Z,101469.88
2023-01-13T16:02:56.274Z,101466.31
2023-01-13T16:05:37.918Z,101462.03
2023-01-13T16:08:05.008Z,101450.66
2023-01-13T16:10:35.412Z,101448.09
2023-01-13T16:13:13.055Z,101454.31
2023-01-13T16:15:47.664Z,101463.97
2023-01-13T16:18:34.684Z,101466.63
2023-01-13T16:21:03.484Z,101480.50
2023-01-13T16:23:39.965Z,101486.63
2023-01-13T16:26:24.409Z,101474.34
2023-01-13T16:28:59.203Z,101477.81
2023-01-13T16:31:39.672Z,101471.66
2023-01-13T16:34:15.368Z,101466.56
2023-01-13T16:36:50.957Z,101461.38
2023-01-13T16:39:23.996Z,101460.53
2023-01-13T16:41:50.904Z,101447.34
2023-01-13T16:44:29.026Z,101453.38
2023-01-13T16:47:07.787Z,101455.19
2023-01-13T16:49:34.763Z,101461.41
2023-01-13T16:52:01.555Z,101461.41
2023-01-13T16:54:29.029Z,101464.03
2023-01-13T16:57:05.510Z,101473.72
2023-01-13T16:59:32.245Z,101487.69
2023-01-13T17:01:59.463Z,101485.94
2023-01-13T17:04:29.910Z,101485.91
2023-01-13T17:07:06.242Z,101485.09
2023-01-13T17:09:39.373Z,101492.94
2023-01-13T17:12:06.484Z,101496.47
2023-01-13T17:14:33.356Z,101485.06
2023-01-13T17:17:00.537Z,101493.84
2023-01-13T17:19:39.297Z,101503.44
2023-01-13T17:22:06.127Z,101517.44
2023-01-13T17:24:35.411Z,101515.69
2023-01-13T17:27:13.920Z,101527.91
2023-01-13T17:29:41.430Z,101533.13
2023-01-13T17:32:17.644Z,101533.16
2023-01-13T17:34:45.226Z,101535.78
2023-01-13T17:37:18.129Z,101535.75
2023-01-13T17:39:51.383Z,101540.13
2023-01-13T17:42:18.662Z,101537.50
2023-01-13T17:44:47.012Z,101535.72
2023-01-13T17:47:21.581Z,101522.63
2023-01-13T17:49:50.480Z,101523.44
2023-01-13T17:52:17.636Z,101523.50
2023-01-13T17:54:50.968Z,101532.28
2023-01-13T17:57:29.881Z,101525.28
2023-01-13T18:00:14.715Z,101518.28
2023-01-13T18:02:43.791Z,101517.38
2023-01-13T18:05:10.720Z,101522.66
2023-01-13T18:07:43.691Z,101532.28
2023-01-13T18:10:14.475Z,101527.91
2023-01-13T18:12:54.918Z,101520.91
2023-01-13T18:15:26.588Z,101527.91
2023-01-13T18:17:55.644Z,101527.91
2023-01-13T18:20:42.564Z,101528.75
2023-01-13T18:23:39.363Z,101515.69
2023-01-13T18:26:54.392Z,101525.28
2023-01-13T18:29:39.420Z,101524.38
2023-01-13T18:32:09.710Z,101524.38
2023-01-13T18:34:58.695Z,101527.88
2023-01-13T18:40:33.658Z,101534.88
2023-01-13T18:43:06.377Z,101538.38
2023-01-13T18:45:51.795Z,101538.38
2023-01-13T18:48:27.783Z,101547.94
2023-01-13T18:51:02.776Z,101551.47
2023-01-13T18:53:36.335Z,101559.38
2023-01-13T18:56:24.723Z,101563.72
2023-01-13T18:59:07.817Z,101573.31
2023-01-13T19:01:49.812Z,101580.31
2023-01-13T19:04:32.565Z,101578.56
2023-01-13T19:07:15.379Z,101589.03
2023-01-13T19:10:00.114Z,101589.03
2023-01-13T19:12:46.430Z,101599.50
2023-01-13T19:15:26.050Z,101597.75
2023-01-13T19:18:01.566Z,101582.06
2023-01-13T19:20:39.213Z,101589.03
2023-01-13T19:23:18.802Z,101591.66
2023-01-13T19:25:47.786Z,101604.78
2023-01-13T19:28:29.119Z,101610.00
2023-01-13T19:31:14.734Z,101613.50
2023-01-13T19:33:51.613Z,101615.25
2023-01-13T19:36:36.660Z,101603.00
2023-01-13T19:39:15.092Z,101605.56
2023-01-13T19:42:09.331Z,101609.03
2023-01-13T19:45:00.216Z,101629.13
2023-01-13T19:47:45.906Z,101625.66
2023-01-13T19:50:15.932Z,101632.59
2023-01-13T19:52:51.259Z,101634.34
2023-01-13T19:55:22.508Z,101625.59
2023-01-13T19:58:02.951Z,101629.06
2023-01-13T20:00:42.107Z,101636.09
2023-01-13T20:03:22.501Z,101634.31
2023-01-13T20:06:03.331Z,101637.81
2023-01-13T20:08:36.839Z,101633.38
2023-01-13T20:11:22.992Z,101626.38
2023-01-13T20:13:52.214Z,101631.59
2023-01-13T20:16:19.285Z,101630.69
2023-01-13T20:19:01.567Z,101629.03
2023-01-13T20:21:37.887Z,101639.63
2023-01-13T20:24:13.104Z,101643.19
2023-01-13T20:26:52.623Z,101648.38
2023-01-13T20:29:31.632Z,101656.28
2023-01-13T20:32:10.473Z,101648.44
2023-01-13T20:34:40.581Z,101644.97
2023-01-13T20:37:14.594Z,101641.44
2023-01-13T20:39:51.203Z,101641.38
2023-01-13T20:42:30.918Z,101648.28
2023-01-13T20:45:10.286Z,101632.53
2023-01-13T20:47:42.418Z,101643.03
2023-01-13T20:50:11.932Z,101635.09
2023-01-13T20:52:50.093Z,101640.31
2023-01-13T20:55:26.899Z,101649.13
2023-01-13T20:58:09.234Z,101654.47
2023-01-13T21:00:45.111Z,101655.41
2023-01-13T21:03:25.436Z,101664.13
2023-01-13T21:05:57.110Z,101661.53
2023-01-13T21:08:24.704Z,101659.78
2023-01-13T21:11:14.068Z,101669.44
2023-01-13T21:14:08.014Z,101669.44
2023-01-13T21:16:44.795Z,101660.69
2023-01-13T21:19:24.118Z,101658.00
2023-01-13T21:22:04.745Z,101649.22
2023-01-13T21:24:45.115Z,101649.22
2023-01-13T21:27:25.042Z,101643.94
2023-01-13T21:29:53.169Z,101659.53
2023-01-13T21:32:36.467Z,101649.16
2023-01-13T21:35:07.297Z,101655.19
2023-01-13T21:37:43.355Z,101658.59
2023-01-13T21:40:17.860Z,101655.97
2023-01-13T21:43:08.336Z,101653.38
2023-01-13T21:46:04.734Z,101663.28
2023-01-13T21:48:43.163Z,101659.72
2023-01-13T21:51:20.915Z,101675.34
2023-01-13T21:53:54.771Z,101674.34
2023-01-13T21:56:33.492Z,101666.44
2023-01-13T21:59:08.034Z,101662.75
2023-01-13T22:02:23.022Z,101657.53
2023-01-13T22:04:46.249Z,101655.75
2023-01-13T22:07:27.260Z,101658.44
2023-01-13T22:10:01.162Z,101652.38
2023-01-13T22:12:29.724Z,101658.47
2023-01-13T22:15:04.376Z,101669.59
2023-01-13T22:17:37.539Z,101668.63
2023-01-13T22:20:22.629Z,101679.88
2023-01-13T22:22:52.366Z,101687.66
2023-01-13T22:25:29.837Z,101682.09
2023-01-13T22:28:10.641Z,101679.56
2023-01-13T22:30:39.844Z,101676.06
2023-01-13T22:33:06.940Z,101679.81
2023-01-13T22:35:34.708Z,101685.06
2023-01-13T22:38:04.465Z,101679.78
2023-01-13T22:40:31.661Z,101687.38
2023-01-13T22:43:01.707Z,101689.00
2023-01-13T22:45:28.626Z,101696.63
2023-01-13T22:48:03.353Z,101711.16
2023-01-13T22:50:39.838Z,101702.28
2023-01-13T22:53:11.872Z,101705.75
2023-01-13T22:55:38.855Z,101698.63
2023-01-13T22:58:21.135Z,101697.91
2023-01-13T23:00:50.285Z,101694.31
2023-01-13T23:03:23.934Z,101697.41
2023-01-13T23:06:05.548Z,101691.78
2023-01-13T23:08:43.233Z,101700.19
2023-01-13T23:11:12.779Z,101712.97
2023-01-13T23:13:42.959Z,101700.69
2023-01-13T23:16:20.395Z,101699.91
2023-01-13T23:18:49.226Z,101712.69
2023-01-13T23:21:40.223Z,101710.56
2023-01-13T23:24:22.252Z,101725.00
2023-01-13T23:26:56.010Z,101715.00
2023-01-13T23:29:39.444Z,101718.19
2023-01-13T23:32:23.162Z,101718.28
2023-01-13T23:41:14.084Z,101730.22
2023-01-13T23:44:07.034Z,101726.00
2023-01-13T23:46:53.495Z,101732.81
2023-01-13T23:49:31.518Z,101713.28
2023-01-13T23:52:11.876Z,101706.16
2023-01-13T23:54:43.353Z,101702.38
2023-01-13T23:57:15.166Z,101705.03
2023-01-13T23:59:48.192Z,101714.44
